createdAt,value
2022-12-19T00:00:38.019Z,28.23
2022-12-19T00:03:06.408Z,29.07
2022-12-19T00:05:38.505Z,27.47
2022-12-19T00:08:10.862Z,27.87
2022-12-19T00:10:57.469Z,31.33
2022-12-19T00:13:26.263Z,28.60
2022-12-19T00:15:55.146Z,27.23
2022-12-19T00:18:23.712Z,27.97
2022-12-19T00:20:59.813Z,30.90
2022-12-19T00:23:30.819Z,27.80
2022-12-19T00:26:10.631Z,33.85
2022-12-19T00:28:38.945Z,29.87
2022-12-19T00:31:08.580Z,34.20
2022-12-19T00:33:37.849Z,33.37
2022-12-19T00:36:14.124Z,27.83
2022-12-19T00:38:45.217Z,31.48
2022-12-19T00:41:17.311Z,29.50
2022-12-19T00:43:46.241Z,30.37
2022-12-19T00:46:16.237Z,34.33
2022-12-19T00:48:44.876Z,31.53
2022-12-19T00:51:15.373Z,36.25
2022-12-19T00:53:43.812Z,26.63
2022-12-19T00:56:15.748Z,33.47
2022-12-19T00:58:47.070Z,31.83
2022-12-19T01:01:18.415Z,31.57
2022-12-19T01:04:18.725Z,34.00
2022-12-19T01:06:36.068Z,34.30
2022-12-19T01:09:08.551Z,31.83
2022-12-19T01:11:55.640Z,31.83
2022-12-19T01:14:23.955Z,39.73
2022-12-19T01:16:52.445Z,35.50
2022-12-19T01:19:21.042Z,33.30
2022-12-19T01:21:49.307Z,32.33
2022-12-19T01:24:19.188Z,33.63
2022-12-19T01:26:49.070Z,32.33
2022-12-19T01:29:17.324Z,36.38
2022-12-19T01:31:45.644Z,36.67
2022-12-19T01:34:14.091Z,41.53
2022-12-19T01:36:42.366Z,35.43
2022-12-19T01:39:10.656Z,29.33
2022-12-19T01:41:39.138Z,30.77
2022-12-19T01:44:10.349Z,33.87
2022-12-19T01:46:42.131Z,33.83
2022-12-19T01:49:17.390Z,32.53
2022-12-19T01:51:49.940Z,31.80
2022-12-19T01:54:23.616Z,31.57
2022-12-19T01:56:54.478Z,39.63
2022-12-19T01:59:28.340Z,36.33
2022-12-19T02:02:03.222Z,39.53
2022-12-19T02:04:32.820Z,34.53
2022-12-19T02:07:06.947Z,34.93
2022-12-19T02:09:44.692Z,34.90
2022-12-19T02:12:13.093Z,41.63
2022-12-19T02:14:43.424Z,28.63
2022-12-19T02:17:19.365Z,31.23
2022-12-19T02:20:25.670Z,27.33
2022-12-19T02:23:12.376Z,30.73
2022-12-19T02:26:03.660Z,34.87
2022-12-19T02:29:00.552Z,37.43
2022-12-19T02:31:32.873Z,32.37
2022-12-19T02:34:05.438Z,33.08
2022-12-19T02:36:40.442Z,36.43
2022-12-19T02:39:16.940Z,28.90
2022-12-19T02:41:49.942Z,32.30
2022-12-19T02:44:22.321Z,35.80
2022-12-19T02:46:53.511Z,30.60
2022-12-19T02:49:26.857Z,31.33
2022-12-19T02:51:59.532Z,37.23
2022-12-19T02:54:27.832Z,31.83
2022-12-19T02:57:01.305Z,39.00
2022-12-19T02:59:43.027Z,31.80
2022-12-19T03:02:21.939Z,29.33
2022-12-19T03:04:56.000Z,32.80
2022-12-19T03:07:35.463Z,31.83
2022-12-19T03:10:13.251Z,37.17
2022-12-19T03:12:51.532Z,32.58
2022-12-19T03:15:21.193Z,33.10
2022-12-19T03:17:50.979Z,35.07
2022-12-19T03:20:25.373Z,35.20
2022-12-19T03:22:53.674Z,34.57
2022-12-19T03:25:23.535Z,33.30
2022-12-19T03:27:53.940Z,32.03
2022-12-19T03:30:22.814Z,32.73
2022-12-19T03:32:53.898Z,31.37
2022-12-19T03:35:24.304Z,29.00
2022-12-19T03:37:59.611Z,30.93
2022-12-19T03:40:30.015Z,35.78
2022-12-19T03:43:12.010Z,28.17
2022-12-19T03:46:02.021Z,31.30
2022-12-19T03:48:37.899Z,27.73
2022-12-19T03:51:18.927Z,34.77
2022-12-19T03:53:54.321Z,30.30
2022-12-19T03:56:31.669Z,27.53
2022-12-19T03:59:03.734Z,26.63
2022-12-19T04:01:35.364Z,29.53
2022-12-19T04:04:06.935Z,33.87
2022-12-19T04:06:36.596Z,32.83
2022-12-19T04:09:05.378Z,33.63
2022-12-19T04:11:39.191Z,27.43
2022-12-19T04:14:11.853Z,35.40
2022-12-19T04:16:49.196Z,35.40
2022-12-19T04:19:23.222Z,31.33
2022-12-19T04:21:57.627Z,23.93
2022-12-19T04:24:30.374Z,24.07
2022-12-19T04:26:59.672Z,28.27
2022-12-19T04:29:30.442Z,28.33
2022-12-19T04:31:58.823Z,25.40
2022-12-19T04:34:28.509Z,34.83
2022-12-19T04:36:56.847Z,29.40
2022-12-19T04:39:25.180Z,30.37
2022-12-19T04:41:53.810Z,30.77
2022-12-19T04:44:22.147Z,30.90
2022-12-19T04:46:50.420Z,29.90
2022-12-19T04:49:18.697Z,30.80
2022-12-19T04:51:48.558Z,28.50
2022-12-19T04:54:16.806Z,31.47
2022-12-19T04:56:45.137Z,26.50
2022-12-19T04:59:13.502Z,27.33
2022-12-19T05:01:41.856Z,27.83
2022-12-19T05:04:10.266Z,30.63
2022-12-19T05:06:39.576Z,34.63
2022-12-19T05:09:11.323Z,24.40
2022-12-19T05:11:40.155Z,31.63
2022-12-19T05:14:10.011Z,26.80
2022-12-19T05:16:38.261Z,29.90
2022-12-19T05:19:06.484Z,27.63
2022-12-19T05:21:34.853Z,26.83
2022-12-19T05:24:03.164Z,27.90
2022-12-19T05:26:33.241Z,28.03
2022-12-19T05:29:01.476Z,21.97
2022-12-19T05:31:29.815Z,26.47
2022-12-19T05:33:58.102Z,24.80
2022-12-19T05:36:30.782Z,23.00
2022-12-19T05:39:00.640Z,25.55
2022-12-19T05:41:28.925Z,24.53
2022-12-19T05:43:58.678Z,28.83
2022-12-19T05:46:27.767Z,31.03
2022-12-19T05:48:56.666Z,24.17
2022-12-19T05:51:25.280Z,21.70
2022-12-19T05:53:53.567Z,22.87
2022-12-19T05:56:23.372Z,20.77
2022-12-19T05:58:52.012Z,22.97
2022-12-19T06:01:23.538Z,20.63
2022-12-19T06:03:52.688Z,24.95
2022-12-19T06:06:23.533Z,24.13
2022-12-19T06:08:54.311Z,31.03
2022-12-19T06:11:22.999Z,23.23
2022-12-19T06:13:51.631Z,21.80
2022-12-19T06:16:23.734Z,26.53
2022-12-19T06:18:52.329Z,28.83
2022-12-19T06:21:22.092Z,21.43
2022-12-19T06:23:53.611Z,24.73
2022-12-19T06:26:23.163Z,21.60
2022-12-19T06:28:53.105Z,26.23
2022-12-19T06:31:24.699Z,21.53
2022-12-19T06:33:53.190Z,21.17
2022-12-19T06:36:23.526Z,26.10
2022-12-19T06:38:53.084Z,25.20
2022-12-19T06:41:39.449Z,26.70
2022-12-19T06:44:09.604Z,23.83
2022-12-19T06:46:40.509Z,20.27
2022-12-19T06:49:09.789Z,25.63
2022-12-19T06:51:38.563Z,28.10
2022-12-19T06:54:07.119Z,26.67
2022-12-19T06:56:38.735Z,20.33
2022-12-19T06:59:07.592Z,24.10
2022-12-19T07:01:48.453Z,22.87
2022-12-19T07:04:24.926Z,23.23
2022-12-19T07:06:53.282Z,23.03
2022-12-19T07:09:21.665Z,26.07
2022-12-19T07:11:49.936Z,25.60
2022-12-19T07:14:19.145Z,21.07
2022-12-19T07:16:53.341Z,27.30
2022-12-19T07:19:22.589Z,28.27
2022-12-19T07:21:51.293Z,19.73
2022-12-19T07:24:20.980Z,23.27
2022-12-19T07:26:49.685Z,23.43
2022-12-19T07:29:18.056Z,27.70
2022-12-19T07:31:46.378Z,24.57
2022-12-19T07:34:16.145Z,27.07
2022-12-19T07:36:44.443Z,23.00
2022-12-19T07:39:12.837Z,25.23
2022-12-19T07:41:44.153Z,24.43
2022-12-19T07:44:13.393Z,23.83
2022-12-19T07:46:41.664Z,30.27
2022-12-19T07:49:10.271Z,26.37
2022-12-19T07:51:39.980Z,26.00
2022-12-19T07:54:08.310Z,26.03
2022-12-19T07:56:36.639Z,22.60
2022-12-19T07:59:05.223Z,22.93
2022-12-19T08:01:33.802Z,22.90
2022-12-19T08:04:02.247Z,26.17
2022-12-19T08:06:30.624Z,25.17
2022-12-19T08:09:00.241Z,29.20
2022-12-19T08:11:29.832Z,28.30
2022-12-19T08:13:58.296Z,28.87
2022-12-19T08:16:28.794Z,24.93
2022-12-19T08:18:57.435Z,22.83
2022-12-19T08:21:26.048Z,25.13
2022-12-19T08:23:54.602Z,27.92
2022-12-19T08:26:26.047Z,25.10
2022-12-19T08:28:55.422Z,22.80
2022-12-19T08:31:25.578Z,25.60
2022-12-19T08:33:55.000Z,22.87
2022-12-19T08:36:24.000Z,24.20
2022-12-19T08:38:53.547Z,27.70
2022-12-19T08:41:21.812Z,29.57
2022-12-19T08:43:53.530Z,26.27
2022-12-19T08:46:24.562Z,22.77
2022-12-19T08:48:53.158Z,25.63
2022-12-19T08:51:23.310Z,27.10
2022-12-19T08:53:52.393Z,21.70
2022-12-19T08:56:22.409Z,28.83
2022-12-19T08:58:52.968Z,29.47
2022-12-19T09:01:24.036Z,27.63
2022-12-19T09:05:26.036Z,33.77
2022-12-19T09:06:47.916Z,26.07
2022-12-19T09:09:18.467Z,28.90
2022-12-19T09:11:48.204Z,27.77
2022-12-19T09:14:21.193Z,28.50
2022-12-19T09:16:50.361Z,30.45
2022-12-19T09:19:18.834Z,22.17
2022-12-19T09:21:49.526Z,27.77
2022-12-19T09:24:17.846Z,25.10
2022-12-19T09:26:46.209Z,25.20
2022-12-19T09:29:20.931Z,31.98
2022-12-19T09:31:56.510Z,26.37
2022-12-19T09:34:38.145Z,28.60
2022-12-19T09:37:38.018Z,28.77
2022-12-19T09:40:07.350Z,29.07
2022-12-19T09:43:03.229Z,31.33
2022-12-19T09:49:48.044Z,23.30
2022-12-19T09:52:19.901Z,23.03
2022-12-19T09:54:54.160Z,29.23
2022-12-19T09:57:27.495Z,29.37
2022-12-19T10:00:00.120Z,24.00
2022-12-19T10:02:38.777Z,28.97
2022-12-19T10:05:29.339Z,25.80
2022-12-19T10:08:15.360Z,30.00
2022-12-19T10:12:39.794Z,30.03
2022-12-19T10:14:04.662Z,32.77
2022-12-19T10:16:52.136Z,29.47
2022-12-19T10:19:40.209Z,23.67
2022-12-19T10:22:19.823Z,24.60
2022-12-19T10:25:15.177Z,25.30
2022-12-19T10:27:59.731Z,24.73
2022-12-19T10:30:31.899Z,30.27
2022-12-19T10:33:16.224Z,25.60
2022-12-19T10:35:55.622Z,26.57
2022-12-19T10:38:33.036Z,24.40
2022-12-19T10:41:16.583Z,31.33
2022-12-19T10:43:53.445Z,27.80
2022-12-19T10:46:31.470Z,27.20
2022-12-19T10:49:00.158Z,28.27
2022-12-19T10:51:30.649Z,28.53
2022-12-19T10:54:01.489Z,25.50
2022-12-19T10:56:37.069Z,32.10
2022-12-19T10:59:16.523Z,23.10
2022-12-19T11:01:45.398Z,25.83
2022-12-19T11:04:30.629Z,31.97
2022-12-19T11:07:19.638Z,31.47
2022-12-19T11:10:05.657Z,30.40
2022-12-19T11:17:03.880Z,29.67
2022-12-19T11:18:53.648Z,28.87
2022-12-19T11:29:26.911Z,26.33
2022-12-19T11:29:31.807Z,33.50
2022-12-19T11:29:41.500Z,32.37
2022-12-19T11:30:37.982Z,25.87
2022-12-19T11:32:42.769Z,26.67
2022-12-19T11:35:20.959Z,29.40
2022-12-19T11:37:56.234Z,27.57
2022-12-19T11:40:32.985Z,28.87
2022-12-19T11:43:43.155Z,28.47
2022-12-19T11:46:04.131Z,31.10
2022-12-19T11:48:41.159Z,26.77
2022-12-19T11:51:18.850Z,26.47
2022-12-19T11:53:54.279Z,26.03
2022-12-19T11:56:25.542Z,30.17
2022-12-19T11:58:59.087Z,27.60
2022-12-19T12:01:45.726Z,31.87
2022-12-19T12:04:39.460Z,31.87
2022-12-19T12:07:13.607Z,29.43
2022-12-19T12:14:22.676Z,34.03
2022-12-19T12:20:43.716Z,31.63
2022-12-19T12:30:59.334Z,28.07
2022-12-19T12:31:12.797Z,31.10
2022-12-19T12:31:22.013Z,26.07
2022-12-19T12:31:23.723Z,27.50
2022-12-19T12:31:50.063Z,30.43
2022-12-19T12:35:57.124Z,27.67
2022-12-19T12:40:36.330Z,33.53
2022-12-19T12:43:16.331Z,29.43
2022-12-19T12:45:46.247Z,35.50
2022-12-19T12:48:23.491Z,29.77
2022-12-19T12:50:55.042Z,34.28
2022-12-19T12:53:27.944Z,31.10
2022-12-19T12:55:58.974Z,28.70
2022-12-19T12:59:05.662Z,28.60
2022-12-19T13:01:40.335Z,32.70
2022-12-19T13:04:26.891Z,35.50
2022-12-19T13:07:28.591Z,33.70
2022-12-19T13:10:17.294Z,28.90
2022-12-19T13:13:01.510Z,25.67
2022-12-19T13:15:42.491Z,31.98
2022-12-19T13:18:40.958Z,28.50
2022-12-19T13:21:11.215Z,28.63
2022-12-19T13:24:16.008Z,28.13
2022-12-19T13:26:51.230Z,26.30
2022-12-19T13:29:31.357Z,32.70
2022-12-19T13:32:14.987Z,28.80
2022-12-19T13:35:12.762Z,29.30
2022-12-19T13:40:01.897Z,29.77
2022-12-19T13:40:56.698Z,28.10
2022-12-19T13:43:47.739Z,32.93
2022-12-19T13:46:38.040Z,29.10
2022-12-19T13:49:12.418Z,25.47
2022-12-19T13:51:59.908Z,29.57
2022-12-19T13:54:33.022Z,31.35
2022-12-19T13:57:09.218Z,29.10
2022-12-19T13:59:45.550Z,32.23
2022-12-19T14:02:33.091Z,29.30
2022-12-19T14:06:15.189Z,31.60
2022-12-19T14:08:19.566Z,35.25
2022-12-19T14:11:41.003Z,29.77
2022-12-19T14:14:12.730Z,31.53
2022-12-19T14:16:45.924Z,29.07
2022-12-19T14:19:23.052Z,26.67
2022-12-19T14:22:10.608Z,32.27
2022-12-19T14:24:40.438Z,33.57
2022-12-19T14:28:20.908Z,32.10
2022-12-19T14:30:26.245Z,27.07
2022-12-19T14:33:44.502Z,29.90
2022-12-19T14:36:10.647Z,31.07
2022-12-19T14:39:24.703Z,34.07
2022-12-19T14:42:02.289Z,34.33
2022-12-19T14:52:25.145Z,32.80
2022-12-19T14:53:52.385Z,36.30
2022-12-19T14:54:27.383Z,28.57
2022-12-19T14:57:25.150Z,28.80
2022-12-19T15:01:10.369Z,35.83
2022-12-19T15:03:23.302Z,34.07
2022-12-19T15:05:53.583Z,31.30
2022-12-19T15:09:50.615Z,27.13
2022-12-19T15:11:53.863Z,30.87
2022-12-19T15:14:56.672Z,30.67
2022-12-19T15:17:21.899Z,33.00
2022-12-19T15:19:50.474Z,30.10
2022-12-19T15:22:19.848Z,51.10
2022-12-19T15:24:48.097Z,31.33
2022-12-19T15:27:18.875Z,32.27
2022-12-19T15:29:47.271Z,37.37
2022-12-19T15:32:16.487Z,32.27
2022-12-19T15:34:51.081Z,33.30
2022-12-19T15:37:22.523Z,33.60
2022-12-19T15:39:50.876Z,26.60
2022-12-19T15:42:22.367Z,26.73
2022-12-19T15:44:52.272Z,27.67
2022-12-19T15:47:25.849Z,28.33
2022-12-19T15:49:55.710Z,29.93
2022-12-19T15:52:25.716Z,33.75
2022-12-19T15:54:56.781Z,31.70
2022-12-19T15:57:31.911Z,31.07
2022-12-19T16:00:03.428Z,30.47
2022-12-19T16:05:24.945Z,41.10
2022-12-19T16:07:53.455Z,35.63
2022-12-19T16:10:22.487Z,29.37
2022-12-19T16:12:53.195Z,32.37
2022-12-19T16:15:26.536Z,31.70
2022-12-19T16:17:55.596Z,40.72
2022-12-19T16:20:28.086Z,33.07
2022-12-19T16:22:56.513Z,32.23
2022-12-19T16:25:29.370Z,33.30
2022-12-19T16:27:59.443Z,31.83
2022-12-19T16:30:30.621Z,37.63
2022-12-19T16:32:59.155Z,29.87
2022-12-19T16:38:19.466Z,29.53
2022-12-19T16:40:48.531Z,31.60
2022-12-19T16:43:25.586Z,27.63
2022-12-19T16:45:59.814Z,28.47
2022-12-19T16:48:30.679Z,32.97
2022-12-19T16:51:00.725Z,29.77
2022-12-19T16:53:29.410Z,33.40
2022-12-19T16:55:58.326Z,32.47
2022-12-19T16:58:29.023Z,33.20
2022-12-19T17:00:57.565Z,29.80
2022-12-19T17:03:30.566Z,27.60
2022-12-19T17:06:00.219Z,37.00
2022-12-19T17:08:28.596Z,30.27
2022-12-19T17:10:56.991Z,36.60
2022-12-19T17:13:26.062Z,27.93
2022-12-19T17:15:56.984Z,31.53
2022-12-19T17:18:29.764Z,33.30
2022-12-19T17:20:59.478Z,33.50
2022-12-19T17:23:30.260Z,31.07
2022-12-19T17:25:59.526Z,40.77
2022-12-19T17:28:28.317Z,28.77
2022-12-19T17:30:58.809Z,34.17
2022-12-19T17:33:32.811Z,33.23
2022-12-19T17:36:03.980Z,35.53
2022-12-19T17:38:32.296Z,35.13
2022-12-19T17:41:00.885Z,33.93
2022-12-19T17:43:29.206Z,32.53
2022-12-19T17:45:58.319Z,35.37
2022-12-19T17:48:29.258Z,31.77
2022-12-19T17:50:58.412Z,29.97
2022-12-19T17:53:28.107Z,30.73
2022-12-19T17:55:56.597Z,33.87
2022-12-19T17:58:25.479Z,31.83
2022-12-19T18:00:54.157Z,29.90
2022-12-19T18:03:25.149Z,34.80
2022-12-19T18:05:55.119Z,28.30
2022-12-19T18:08:28.135Z,30.33
2022-12-19T18:10:57.934Z,40.03
2022-12-19T18:13:27.593Z,35.37
2022-12-19T18:15:59.614Z,38.00
2022-12-19T18:18:31.092Z,33.43
2022-12-19T18:21:01.631Z,37.13
2022-12-19T18:23:31.665Z,36.83
2022-12-19T18:26:02.405Z,31.67
2022-12-19T18:28:31.432Z,35.33
2022-12-19T18:31:02.905Z,33.90
2022-12-19T18:33:38.022Z,35.23
2022-12-19T18:36:07.724Z,32.63
2022-12-19T18:38:37.399Z,31.97
2022-12-19T18:41:05.951Z,31.08
2022-12-19T18:43:34.205Z,35.63
2022-12-19T18:46:02.602Z,28.60
2022-12-19T18:49:29.171Z,31.03
2022-12-19T18:51:57.852Z,34.70
2022-12-19T18:54:28.773Z,41.00
2022-12-19T18:56:57.487Z,34.00
2022-12-19T18:59:25.797Z,28.60
2022-12-19T19:01:55.630Z,42.37
2022-12-19T19:04:24.236Z,34.97
2022-12-19T19:06:55.237Z,34.20
2022-12-19T19:09:24.096Z,38.30
2022-12-19T19:11:53.866Z,31.13
2022-12-19T19:14:22.148Z,35.63
2022-12-19T19:16:52.465Z,33.43
2022-12-19T19:19:20.953Z,40.50
2022-12-19T19:21:51.997Z,36.57
2022-12-19T19:24:22.901Z,31.57
2022-12-19T19:26:51.197Z,35.90
2022-12-19T19:29:20.860Z,31.30
2022-12-19T19:31:51.396Z,34.37
2022-12-19T19:34:22.801Z,41.43
2022-12-19T19:36:56.143Z,37.13
2022-12-19T19:39:24.951Z,31.20
2022-12-19T19:41:53.722Z,35.03
2022-12-19T19:44:23.440Z,39.67
2022-12-19T19:46:51.816Z,37.97
2022-12-19T19:49:21.782Z,35.43
2022-12-19T19:51:50.103Z,36.03
2022-12-19T19:54:18.575Z,35.43
2022-12-19T19:56:46.868Z,39.27
2022-12-19T19:59:15.154Z,42.95
2022-12-19T20:01:44.887Z,36.70
2022-12-19T20:04:13.547Z,42.50
2022-12-19T20:06:42.007Z,35.63
2022-12-19T20:09:10.273Z,35.57
2022-12-19T20:11:38.602Z,46.10
2022-12-19T20:14:06.975Z,37.93
2022-12-19T20:16:36.097Z,41.93
2022-12-19T20:19:05.747Z,44.73
2022-12-19T20:21:34.021Z,44.20
2022-12-19T20:24:02.642Z,45.90
2022-12-19T20:26:31.516Z,43.93
2022-12-19T20:28:59.794Z,37.87
2022-12-19T20:31:28.634Z,43.73
2022-12-19T20:33:57.670Z,39.35
2022-12-19T20:36:27.391Z,44.30
2022-12-19T20:38:56.346Z,42.47
2022-12-19T20:41:24.707Z,38.30
2022-12-19T20:43:53.296Z,43.27
2022-12-19T20:46:22.937Z,39.77
2022-12-19T20:48:52.309Z,47.85
2022-12-19T20:51:22.136Z,45.67
2022-12-19T20:53:54.766Z,48.33
2022-12-19T20:56:25.933Z,40.00
2022-12-19T20:58:54.536Z,54.70
2022-12-19T21:01:24.834Z,82.38
2022-12-19T21:03:53.701Z,67.43
2022-12-19T21:06:25.379Z,61.97
2022-12-19T21:08:55.641Z,43.00
2022-12-19T21:11:24.831Z,47.40
2022-12-19T21:13:53.324Z,46.55
2022-12-19T21:16:23.352Z,43.63
2022-12-19T21:18:52.521Z,41.47
2022-12-19T21:21:23.327Z,46.63
2022-12-19T21:23:52.728Z,43.30
2022-12-19T21:26:23.704Z,46.78
2022-12-19T21:28:52.251Z,42.53
2022-12-19T21:31:23.496Z,41.77
2022-12-19T21:33:54.633Z,44.37
2022-12-19T21:36:25.579Z,41.03
2022-12-19T21:38:57.343Z,39.30
2022-12-19T21:41:27.489Z,37.43
2022-12-19T21:43:56.814Z,46.70
2022-12-19T21:46:28.004Z,42.57
2022-12-19T21:48:57.519Z,45.97
2022-12-19T21:51:28.008Z,40.10
2022-12-19T21:53:57.157Z,37.80
2022-12-19T21:56:28.826Z,43.00
2022-12-19T21:58:59.506Z,36.37
2022-12-19T22:01:29.576Z,37.60
2022-12-19T22:04:00.930Z,41.13
2022-12-19T22:06:32.298Z,40.23
2022-12-19T22:09:01.409Z,42.00
2022-12-19T22:11:31.841Z,44.43
2022-12-19T22:14:01.391Z,40.83
2022-12-19T22:16:30.002Z,48.10
2022-12-19T22:18:58.476Z,44.90
2022-12-19T22:21:27.471Z,50.10
2022-12-19T22:23:58.715Z,40.10
2022-12-19T22:26:28.160Z,42.97
2022-12-19T22:28:58.568Z,45.60
2022-12-19T22:31:29.116Z,41.47
2022-12-19T22:33:59.420Z,37.87
2022-12-19T22:36:31.510Z,41.33
2022-12-19T22:39:00.939Z,38.63
2022-12-19T22:41:29.638Z,42.90
2022-12-19T22:43:59.314Z,41.03
2022-12-19T22:46:29.533Z,38.63
2022-12-19T22:48:59.572Z,41.53
2022-12-19T22:51:29.026Z,43.30
2022-12-19T22:53:57.690Z,43.30
2022-12-19T22:56:27.424Z,39.70
2022-12-19T22:58:57.639Z,41.57
2022-12-19T23:01:29.523Z,42.67
2022-12-19T23:04:01.276Z,46.10
2022-12-19T23:06:32.071Z,47.00
2022-12-19T23:09:00.378Z,45.60
2022-12-19T23:11:31.486Z,39.00
2022-12-19T23:14:00.257Z,41.17
2022-12-19T23:16:30.523Z,35.97
2022-12-19T23:18:58.806Z,41.43
2022-12-19T23:21:27.956Z,40.67
2022-12-19T23:23:57.467Z,39.10
2022-12-19T23:26:27.975Z,37.97
2022-12-19T23:28:59.019Z,40.30
2022-12-19T23:31:29.540Z,42.70
2022-12-19T23:33:58.332Z,45.00
2022-12-19T23:37:01.011Z,44.90
2022-12-19T23:39:15.824Z,47.47
2022-12-19T23:41:44.303Z,45.47
2022-12-19T23:44:12.860Z,41.33
2022-12-19T23:46:42.596Z,41.28
2022-12-19T23:49:10.900Z,37.60
2022-12-19T23:51:39.327Z,46.73
2022-12-19T23:54:08.822Z,38.83
2022-12-19T23:56:37.488Z,44.10
2022-12-19T23:59:06.352Z,36.83
